GEC302 ENBR-ESSA
Flight info
| Callsign | GEC302 |
|---|---|
| Flight time | 0h 56m |
| Altitude | 35000 |
| Route | GOKAB DCT ELTOK |
| Aircraft | B77L/H-SDE1E2E3FGHIJ2J3J4J5M1RWXY/LB1D1 |
Departure
| Time | 2026-05-04 12:44 |
|---|---|
| Airport | Bergen Airport, Flesland (ENBR) |
Arrival
| Time | 2026-05-04 13:41 |
|---|---|
| Airport | Stockholm-Arlanda Airport (ESSA) |
| Time | Latitude | Longitude | Altitude | Speed | Heading |
|---|---|---|---|---|---|
| 2026-05-04 12:14 | 60.28618 | 5.22641 | 170 ft | 0 kts | 80° |
| 2026-05-04 12:40 | 60.28614 | 5.22658 | 170 ft | 0 kts | 126° |
| 2026-05-04 12:40 | 60.28597 | 5.22661 | 170 ft | 3 kts | 194° |
| 2026-05-04 12:40 | 60.28542 | 5.22583 | 169 ft | 13 kts | 212° |
| 2026-05-04 12:40 | 60.28446 | 5.22563 | 166 ft | 18 kts | 173° |
| 2026-05-04 12:41 | 60.28333 | 5.22593 | 163 ft | 7 kts | 181° |
| 2026-05-04 12:41 | 60.28307 | 5.22563 | 162 ft | 12 kts | 226° |
| 2026-05-04 12:41 | 60.28193 | 5.22523 | 156 ft | 23 kts | 169° |
| 2026-05-04 12:41 | 60.28081 | 5.22530 | 157 ft | 10 kts | 210° |
| 2026-05-04 12:42 | 60.28044 | 5.22366 | 154 ft | 15 kts | 258° |
| 2026-05-04 12:42 | 60.28049 | 5.22270 | 155 ft | 2 kts | 298° |
| 2026-05-04 12:42 | 60.28071 | 5.22250 | 155 ft | 0 kts | 344° |
| 2026-05-04 12:43 | 60.28075 | 5.22248 | 155 ft | 6 kts | 344° |
| 2026-05-04 12:43 | 60.28274 | 5.22174 | 161 ft | 68 kts | 350° |
| 2026-05-04 12:44 | 60.28775 | 5.22006 | 168 ft | 148 kts | 350° |
| 2026-05-04 12:44 | 60.29984 | 5.21616 | 958 ft | 182 kts | 351° |
| 2026-05-04 12:44 | 60.31146 | 5.21266 | 2621 ft | 159 kts | 351° |
| 2026-05-04 12:44 | 60.32271 | 5.20917 | 3301 ft | 174 kts | 348° |
| 2026-05-04 12:45 | 60.33557 | 5.20496 | 3561 ft | 204 kts | 348° |
| 2026-05-04 12:45 | 60.35061 | 5.19989 | 3850 ft | 235 kts | 347° |
| 2026-05-04 12:45 | 60.36761 | 5.19412 | 4358 ft | 255 kts | 348° |
| 2026-05-04 12:45 | 60.38521 | 5.18901 | 5276 ft | 256 kts | 356° |
| 2026-05-04 12:46 | 60.40296 | 5.19784 | 5854 ft | 276 kts | 28° |
| 2026-05-04 12:46 | 60.41673 | 5.22553 | 5830 ft | 287 kts | 62° |
| 2026-05-04 12:46 | 60.42164 | 5.26380 | 6050 ft | 277 kts | 88° |
| 2026-05-04 12:46 | 60.42175 | 5.30314 | 6665 ft | 286 kts | 91° |
| 2026-05-04 12:47 | 60.42157 | 5.34420 | 7421 ft | 297 kts | 92° |
| 2026-05-04 12:47 | 60.42132 | 5.38629 | 8216 ft | 303 kts | 92° |
| 2026-05-04 12:47 | 60.42097 | 5.42998 | 8819 ft | 317 kts | 93° |
| 2026-05-04 12:47 | 60.42064 | 5.47446 | 9662 ft | 319 kts | 94° |
| 2026-05-04 12:48 | 60.42028 | 5.52007 | 10340 ft | 328 kts | 93° |
| 2026-05-04 12:48 | 60.41963 | 5.56792 | 10676 ft | 354 kts | 94° |
| 2026-05-04 12:48 | 60.41896 | 5.61974 | 10872 ft | 384 kts | 94° |
| 2026-05-04 12:48 | 60.41841 | 5.67517 | 11403 ft | 401 kts | 93° |
| 2026-05-04 12:49 | 60.41785 | 5.73225 | 12310 ft | 409 kts | 92° |
| 2026-05-04 12:49 | 60.41732 | 5.79037 | 13292 ft | 418 kts | 92° |
| 2026-05-04 12:49 | 60.41671 | 5.84973 | 14162 ft | 426 kts | 92° |
| 2026-05-04 12:49 | 60.41607 | 5.91032 | 15023 ft | 436 kts | 92° |
| 2026-05-04 12:50 | 60.41538 | 5.97234 | 15802 ft | 446 kts | 92° |
| 2026-05-04 12:50 | 60.41465 | 6.03576 | 16612 ft | 456 kts | 92° |
| 2026-05-04 12:50 | 60.41385 | 6.10056 | 17414 ft | 466 kts | 92° |
| 2026-05-04 12:50 | 60.41301 | 6.16662 | 18204 ft | 474 kts | 92° |
| 2026-05-04 12:51 | 60.41214 | 6.23397 | 18869 ft | 483 kts | 91° |
| 2026-05-04 12:51 | 60.41121 | 6.30218 | 19635 ft | 489 kts | 91° |
| 2026-05-04 12:51 | 60.41021 | 6.37146 | 20301 ft | 496 kts | 91° |
| 2026-05-04 12:51 | 60.40918 | 6.44178 | 21005 ft | 503 kts | 91° |
| 2026-05-04 12:52 | 60.40809 | 6.51301 | 21711 ft | 511 kts | 90° |
| 2026-05-04 12:52 | 60.40694 | 6.58534 | 22466 ft | 518 kts | 90° |
| 2026-05-04 12:52 | 60.40556 | 6.66844 | 23224 ft | 525 kts | 90° |
| 2026-05-04 12:52 | 60.40444 | 6.73280 | 23758 ft | 531 kts | 90° |
| 2026-05-04 12:53 | 60.40313 | 6.80790 | 24408 ft | 537 kts | 90° |
| 2026-05-04 12:53 | 60.40177 | 6.88376 | 24999 ft | 542 kts | 90° |
| 2026-05-04 12:53 | 60.40034 | 6.96032 | 25626 ft | 547 kts | 90° |
| 2026-05-04 12:53 | 60.39884 | 7.03753 | 26251 ft | 551 kts | 90° |
| 2026-05-04 12:54 | 60.39729 | 7.11522 | 26872 ft | 555 kts | 90° |
| 2026-05-04 12:54 | 60.39569 | 7.19229 | 27552 ft | 557 kts | 90° |
| 2026-05-04 12:54 | 60.39403 | 7.27102 | 28061 ft | 564 kts | 90° |
| 2026-05-04 12:54 | 60.39232 | 7.35072 | 28549 ft | 570 kts | 90° |
| 2026-05-04 12:55 | 60.39052 | 7.43109 | 29079 ft | 574 kts | 90° |
| 2026-05-04 12:55 | 60.38867 | 7.51177 | 29843 ft | 574 kts | 90° |
| 2026-05-04 12:55 | 60.38678 | 7.59219 | 30542 ft | 571 kts | 91° |
| 2026-05-04 12:55 | 60.38484 | 7.67171 | 31480 ft | 561 kts | 91° |
| 2026-05-04 12:56 | 60.38289 | 7.74967 | 32560 ft | 550 kts | 92° |
| 2026-05-04 12:56 | 60.38095 | 7.82609 | 33601 ft | 540 kts | 93° |
| 2026-05-04 12:56 | 60.37900 | 7.90131 | 34359 ft | 534 kts | 93° |
| 2026-05-04 12:56 | 60.37703 | 7.97623 | 34776 ft | 536 kts | 93° |
| 2026-05-04 12:57 | 60.37499 | 8.05195 | 34767 ft | 542 kts | 93° |
| 2026-05-04 12:57 | 60.37079 | 8.20332 | 34747 ft | 534 kts | 94° |
| 2026-05-04 12:58 | 60.36646 | 8.35255 | 34753 ft | 531 kts | 94° |
| 2026-05-04 12:58 | 60.36196 | 8.50154 | 34750 ft | 532 kts | 94° |
| 2026-05-04 12:59 | 60.35730 | 8.65071 | 34741 ft | 533 kts | 94° |
| 2026-05-04 12:59 | 60.35246 | 8.80006 | 34761 ft | 534 kts | 94° |
| 2026-05-04 13:00 | 60.34744 | 8.95012 | 34733 ft | 536 kts | 94° |
| 2026-05-04 13:00 | 60.34222 | 9.10055 | 34741 ft | 538 kts | 94° |
| 2026-05-04 13:01 | 60.33684 | 9.25149 | 34730 ft | 539 kts | 95° |
| 2026-05-04 13:01 | 60.33124 | 9.40261 | 34730 ft | 540 kts | 95° |
| 2026-05-04 13:02 | 60.32548 | 9.55377 | 34727 ft | 541 kts | 95° |
| 2026-05-04 13:02 | 60.31954 | 9.70508 | 34732 ft | 541 kts | 95° |
| 2026-05-04 13:03 | 60.31342 | 9.85636 | 34711 ft | 541 kts | 95° |
| 2026-05-04 13:03 | 60.30715 | 10.00763 | 34712 ft | 541 kts | 95° |
| 2026-05-04 13:04 | 60.30071 | 10.15877 | 34715 ft | 541 kts | 96° |
| 2026-05-04 13:04 | 60.29408 | 10.30987 | 34716 ft | 541 kts | 96° |
| 2026-05-04 13:05 | 60.28728 | 10.46070 | 34724 ft | 540 kts | 96° |
| 2026-05-04 13:05 | 60.28033 | 10.61158 | 34716 ft | 540 kts | 96° |
| 2026-05-04 13:06 | 60.27320 | 10.76222 | 34716 ft | 540 kts | 96° |
| 2026-05-04 13:06 | 60.26591 | 10.91265 | 34716 ft | 539 kts | 97° |
| 2026-05-04 13:07 | 60.25846 | 11.06290 | 34722 ft | 539 kts | 97° |
| 2026-05-04 13:07 | 60.25084 | 11.21296 | 34719 ft | 539 kts | 97° |
| 2026-05-04 13:08 | 60.24305 | 11.36292 | 34711 ft | 539 kts | 97° |
| 2026-05-04 13:08 | 60.23517 | 11.51181 | 34702 ft | 537 kts | 98° |
| 2026-05-04 13:09 | 60.22705 | 11.66171 | 34692 ft | 534 kts | 98° |
| 2026-05-04 13:09 | 60.21890 | 11.80880 | 34695 ft | 531 kts | 98° |
| 2026-05-04 13:10 | 60.21057 | 11.95618 | 34692 ft | 530 kts | 98° |
| 2026-05-04 13:10 | 60.20208 | 12.10343 | 34666 ft | 531 kts | 99° |
| 2026-05-04 13:11 | 60.19353 | 12.24909 | 34681 ft | 530 kts | 99° |
| 2026-05-04 13:11 | 60.18472 | 12.39608 | 34678 ft | 529 kts | 99° |
| 2026-05-04 13:12 | 60.17577 | 12.54287 | 34684 ft | 529 kts | 99° |
| 2026-05-04 13:12 | 60.16664 | 12.68955 | 34681 ft | 529 kts | 99° |
| 2026-05-04 13:13 | 60.15738 | 12.83599 | 34691 ft | 529 kts | 100° |
| 2026-05-04 13:13 | 60.14794 | 12.98241 | 34691 ft | 529 kts | 100° |
| 2026-05-04 13:14 | 60.13834 | 13.12875 | 34676 ft | 529 kts | 100° |
| 2026-05-04 13:14 | 60.12858 | 13.27503 | 34682 ft | 529 kts | 100° |
| 2026-05-04 13:15 | 60.11865 | 13.42137 | 34657 ft | 529 kts | 101° |
| 2026-05-04 13:15 | 60.10857 | 13.56744 | 34684 ft | 528 kts | 101° |
| 2026-05-04 13:16 | 60.09836 | 13.71314 | 34684 ft | 528 kts | 101° |
| 2026-05-04 13:16 | 60.08798 | 13.85859 | 34679 ft | 527 kts | 101° |
| 2026-05-04 13:17 | 60.07744 | 14.00403 | 34680 ft | 527 kts | 101° |
| 2026-05-04 13:17 | 60.06678 | 14.14887 | 34642 ft | 520 kts | 101° |
| 2026-05-04 13:17 | 60.06152 | 14.21991 | 34508 ft | 511 kts | 101° |
| 2026-05-04 13:18 | 60.05630 | 14.28977 | 34174 ft | 505 kts | 101° |
| 2026-05-04 13:18 | 60.05107 | 14.35913 | 33688 ft | 503 kts | 102° |
| 2026-05-04 13:18 | 60.04580 | 14.42824 | 33071 ft | 502 kts | 102° |
| 2026-05-04 13:18 | 60.04051 | 14.49711 | 32556 ft | 499 kts | 102° |
| 2026-05-04 13:19 | 60.03524 | 14.56534 | 32141 ft | 494 kts | 102° |
| 2026-05-04 13:19 | 60.03000 | 14.63282 | 31713 ft | 489 kts | 102° |
| 2026-05-04 13:19 | 60.02477 | 14.69962 | 31269 ft | 485 kts | 102° |
| 2026-05-04 13:19 | 60.01955 | 14.76591 | 30829 ft | 480 kts | 102° |
| 2026-05-04 13:20 | 60.01437 | 14.83135 | 30508 ft | 474 kts | 102° |
| 2026-05-04 13:20 | 60.00921 | 14.89602 | 30111 ft | 469 kts | 102° |
| 2026-05-04 13:20 | 60.00405 | 14.96023 | 29667 ft | 466 kts | 102° |
| 2026-05-04 13:20 | 59.99888 | 15.02404 | 29132 ft | 464 kts | 102° |
| 2026-05-04 13:21 | 59.99372 | 15.08741 | 28637 ft | 461 kts | 103° |
| 2026-05-04 13:21 | 59.98857 | 15.15041 | 28156 ft | 458 kts | 103° |
| 2026-05-04 13:21 | 59.98343 | 15.21290 | 27693 ft | 454 kts | 103° |
| 2026-05-04 13:21 | 59.97829 | 15.27490 | 27234 ft | 451 kts | 103° |
| 2026-05-04 13:22 | 59.97316 | 15.33649 | 26779 ft | 448 kts | 103° |
| 2026-05-04 13:22 | 59.96803 | 15.39767 | 26300 ft | 445 kts | 103° |
| 2026-05-04 13:22 | 59.96293 | 15.45826 | 25945 ft | 440 kts | 103° |
| 2026-05-04 13:22 | 59.95785 | 15.51823 | 25557 ft | 437 kts | 104° |
| 2026-05-04 13:23 | 59.95276 | 15.57782 | 25123 ft | 435 kts | 104° |
| 2026-05-04 13:23 | 59.94767 | 15.63715 | 24680 ft | 433 kts | 104° |
| 2026-05-04 13:23 | 59.94257 | 15.69622 | 24250 ft | 432 kts | 104° |
| 2026-05-04 13:23 | 59.93747 | 15.75505 | 23866 ft | 429 kts | 104° |
| 2026-05-04 13:24 | 59.93237 | 15.81355 | 23472 ft | 427 kts | 104° |
| 2026-05-04 13:24 | 59.92725 | 15.87184 | 23073 ft | 425 kts | 104° |
| 2026-05-04 13:24 | 59.92220 | 15.92930 | 22558 ft | 415 kts | 104° |
| 2026-05-04 13:25 | 59.91226 | 16.04137 | 20876 ft | 406 kts | 104° |
| 2026-05-04 13:25 | 59.90738 | 16.09612 | 20021 ft | 397 kts | 104° |
| 2026-05-04 13:25 | 59.90254 | 16.14994 | 19078 ft | 393 kts | 104° |
| 2026-05-04 13:25 | 59.89773 | 16.20315 | 18151 ft | 388 kts | 104° |
| 2026-05-04 13:26 | 59.89296 | 16.25574 | 17197 ft | 383 kts | 104° |
| 2026-05-04 13:26 | 59.88824 | 16.30749 | 16261 ft | 377 kts | 104° |
| 2026-05-04 13:26 | 59.88359 | 16.35832 | 15378 ft | 370 kts | 104° |
| 2026-05-04 13:26 | 59.87900 | 16.40825 | 14500 ft | 364 kts | 104° |
| 2026-05-04 13:27 | 59.87510 | 16.45770 | 13626 ft | 359 kts | 99° |
| 2026-05-04 13:27 | 59.87275 | 16.50688 | 12683 ft | 355 kts | 97° |
| 2026-05-04 13:27 | 59.87098 | 16.55484 | 12180 ft | 339 kts | 96° |
| 2026-05-04 13:27 | 59.86930 | 16.60129 | 11865 ft | 335 kts | 96° |
| 2026-05-04 13:28 | 59.86812 | 16.63242 | 11621 ft | 333 kts | 96° |
| 2026-05-04 13:28 | 59.86632 | 16.67816 | 11299 ft | 330 kts | 97° |
| 2026-05-04 13:28 | 59.86449 | 16.72356 | 10957 ft | 327 kts | 95° |
| 2026-05-04 13:28 | 59.86462 | 16.76903 | 10647 ft | 331 kts | 88° |
| 2026-05-04 13:29 | 59.86597 | 16.81526 | 10335 ft | 339 kts | 87° |
| 2026-05-04 13:29 | 59.86749 | 16.86235 | 9998 ft | 341 kts | 87° |
| 2026-05-04 13:29 | 59.86900 | 16.90839 | 9846 ft | 333 kts | 87° |
| 2026-05-04 13:29 | 59.87049 | 16.95375 | 9698 ft | 324 kts | 87° |
| 2026-05-04 13:30 | 59.87192 | 16.99803 | 9456 ft | 319 kts | 87° |
| 2026-05-04 13:30 | 59.87334 | 17.04238 | 9130 ft | 315 kts | 87° |
| 2026-05-04 13:30 | 59.87472 | 17.08562 | 8824 ft | 311 kts | 87° |
| 2026-05-04 13:30 | 59.87607 | 17.12779 | 8544 ft | 308 kts | 87° |
| 2026-05-04 13:31 | 59.87742 | 17.17006 | 8237 ft | 304 kts | 87° |
| 2026-05-04 13:31 | 59.87877 | 17.21178 | 7947 ft | 300 kts | 87° |
| 2026-05-04 13:31 | 59.88013 | 17.25301 | 7668 ft | 297 kts | 87° |
| 2026-05-04 13:31 | 59.88146 | 17.29378 | 7394 ft | 293 kts | 87° |
| 2026-05-04 13:32 | 59.88276 | 17.33401 | 7119 ft | 289 kts | 87° |
| 2026-05-04 13:32 | 59.88407 | 17.37385 | 6871 ft | 288 kts | 87° |
| 2026-05-04 13:32 | 59.88536 | 17.41421 | 6811 ft | 299 kts | 87° |
| 2026-05-04 13:32 | 59.88665 | 17.45717 | 6779 ft | 319 kts | 87° |
| 2026-05-04 13:33 | 59.88797 | 17.50118 | 6640 ft | 315 kts | 87° |
| 2026-05-04 13:33 | 59.88926 | 17.54368 | 6191 ft | 300 kts | 87° |
| 2026-05-04 13:33 | 59.89052 | 17.58476 | 5846 ft | 296 kts | 87° |
| 2026-05-04 13:33 | 59.89181 | 17.62563 | 5507 ft | 295 kts | 87° |
| 2026-05-04 13:34 | 59.89125 | 17.66550 | 5155 ft | 284 kts | 102° |
| 2026-05-04 13:34 | 59.88704 | 17.70361 | 4871 ft | 279 kts | 107° |
| 2026-05-04 13:34 | 59.88226 | 17.74079 | 4552 ft | 276 kts | 107° |
| 2026-05-04 13:34 | 59.87739 | 17.77753 | 4221 ft | 273 kts | 107° |
| 2026-05-04 13:35 | 59.87258 | 17.81388 | 3903 ft | 270 kts | 108° |
| 2026-05-04 13:35 | 59.86329 | 17.88473 | 3280 ft | 260 kts | 107° |
| 2026-05-04 13:35 | 59.85873 | 17.91931 | 2956 ft | 255 kts | 110° |
| 2026-05-04 13:36 | 59.85081 | 17.94938 | 2606 ft | 239 kts | 136° |
| 2026-05-04 13:36 | 59.83935 | 17.97226 | 2557 ft | 236 kts | 140° |
| 2026-05-04 13:36 | 59.82737 | 17.99464 | 2495 ft | 234 kts | 147° |
| 2026-05-04 13:36 | 59.81329 | 18.00853 | 2486 ft | 222 kts | 176° |
| 2026-05-04 13:37 | 59.79821 | 18.00854 | 2511 ft | 217 kts | 188° |
| 2026-05-04 13:37 | 59.78306 | 18.00649 | 2473 ft | 216 kts | 189° |
| 2026-05-04 13:37 | 59.76889 | 18.00262 | 2476 ft | 193 kts | 194° |
| 2026-05-04 13:37 | 59.75621 | 17.99801 | 2322 ft | 183 kts | 195° |
| 2026-05-04 13:38 | 59.74409 | 17.99353 | 2086 ft | 172 kts | 195° |
| 2026-05-04 13:38 | 59.73247 | 17.98926 | 1867 ft | 168 kts | 194° |
| 2026-05-04 13:38 | 59.72126 | 17.98517 | 1622 ft | 159 kts | 195° |
| 2026-05-04 13:38 | 59.71055 | 17.98128 | 1459 ft | 149 kts | 195° |
| 2026-05-04 13:39 | 59.70077 | 17.97773 | 1192 ft | 139 kts | 195° |
| 2026-05-04 13:39 | 59.69132 | 17.97473 | 978 ft | 135 kts | 194° |
| 2026-05-04 13:39 | 59.68231 | 17.97101 | 800 ft | 130 kts | 193° |
| 2026-05-04 13:39 | 59.67338 | 17.96831 | 593 ft | 131 kts | 196° |
| 2026-05-04 13:40 | 59.66442 | 17.96459 | 452 ft | 136 kts | 190° |
| 2026-05-04 13:40 | 59.65497 | 17.96110 | 298 ft | 140 kts | 191° |
| 2026-05-04 13:40 | 59.64550 | 17.95772 | 118 ft | 134 kts | 189° |
| 2026-05-04 13:40 | 59.63754 | 17.95476 | 118 ft | 92 kts | 189° |
| 2026-05-04 13:41 | 59.63380 | 17.95275 | 122 ft | 44 kts | 211° |
| 2026-05-04 13:41 | 59.63252 | 17.94965 | 126 ft | 18 kts | 288° |
| 2026-05-04 13:41 | 59.63359 | 17.94927 | 124 ft | 19 kts | 11° |
| 2026-05-04 13:42 | 59.63705 | 17.95055 | 113 ft | 32 kts | 10° |
| 2026-05-04 13:42 | 59.63939 | 17.95139 | 112 ft | 36 kts | 10° |
| 2026-05-04 13:42 | 59.64137 | 17.95211 | 109 ft | 26 kts | 11° |
| 2026-05-04 13:42 | 59.64289 | 17.95211 | 109 ft | 21 kts | 339° |
| 2026-05-04 13:43 | 59.64391 | 17.95007 | 108 ft | 23 kts | 292° |
| 2026-05-04 13:43 | 59.64373 | 17.94669 | 108 ft | 28 kts | 239° |
| 2026-05-04 13:43 | 59.64260 | 17.94321 | 107 ft | 32 kts | 238° |
| 2026-05-04 13:43 | 59.64139 | 17.93946 | 111 ft | 31 kts | 237° |
| 2026-05-04 13:44 | 59.64028 | 17.93595 | 114 ft | 30 kts | 237° |
| 2026-05-04 13:44 | 59.64000 | 17.93263 | 113 ft | 23 kts | 289° |
| 2026-05-04 13:44 | 59.64017 | 17.93045 | 115 ft | 10 kts | 233° |
| 2026-05-04 13:44 | 59.63962 | 17.92970 | 114 ft | 11 kts | 206° |
| 2026-05-04 13:45 | 59.63924 | 17.92933 | 113 ft | 1 kts | 206° |
| 2026-05-04 13:45 | 59.63918 | 17.92927 | 113 ft | 0 kts | 206° |